South Woodbury, Vermont
Current Conditions -  °F | °C
As of 5:51 PM on Tuesday 21 Oct 2014 (Local Time) from KMPV Reporting Station
Haze Haze  
Wind Chill: 45°   Ceiling: 1100
Heat Index: 45°   Visibility: 5mi
Dew Point: 45°   Wind: 3mph
Humidity: 100%   Direction: 340°NNW
Pressure: 30.05"   Gusts: NA
Location:  44.3541°N, 72.4394°W
Report Text: KMPV 212151Z AUTO 34003KT 5SM BR OVC011 07/07 A3005 RMK AO2 RAE07B34E48 SLP184 P0001 T00720072
Loading
Personal Weather Stations






























Interactive Weather Map
Tropical Storm Tracking
New forecast layout! Learn more

10-Day Weather Forecast

Advertisements
Track Severe Weather on mobile